sensor_id;sensor_type;location;lat;lon;timestamp;P1;durP1;ratioP1;P2;durP2;ratioP2
30998;SDS011;20549;50.042;8.968;2023-12-14T00:01:27;9.57;;;8.43;;
30998;SDS011;20549;50.042;8.968;2023-12-14T00:03:54;9.87;;;8.83;;
30998;SDS011;20549;50.042;8.968;2023-12-14T00:06:21;10.93;;;8.73;;
30998;SDS011;20549;50.042;8.968;2023-12-14T00:08:47;9.83;;;8.57;;
30998;SDS011;20549;50.042;8.968;2023-12-14T00:11:14;11.43;;;9.33;;
30998;SDS011;20549;50.042;8.968;2023-12-14T00:13:40;10.00;;;9.00;;
30998;SDS011;20549;50.042;8.968;2023-12-14T00:16:07;9.67;;;8.10;;
30998;SDS011;20549;50.042;8.968;2023-12-14T00:18:34;12.83;;;9.17;;
30998;SDS011;20549;50.042;8.968;2023-12-14T00:21:00;9.93;;;8.87;;
30998;SDS011;20549;50.042;8.968;2023-12-14T00:23:27;9.90;;;8.53;;
30998;SDS011;20549;50.042;8.968;2023-12-14T00:25:53;7.97;;;7.03;;
30998;SDS011;20549;50.042;8.968;2023-12-14T00:28:20;9.47;;;8.13;;
30998;SDS011;20549;50.042;8.968;2023-12-14T00:30:46;10.73;;;8.63;;
30998;SDS011;20549;50.042;8.968;2023-12-14T00:33:13;8.90;;;8.00;;
30998;SDS011;20549;50.042;8.968;2023-12-14T00:35:40;9.00;;;8.10;;
30998;SDS011;20549;50.042;8.968;2023-12-14T00:38:06;9.53;;;7.87;;
30998;SDS011;20549;50.042;8.968;2023-12-14T00:40:33;9.83;;;8.33;;
30998;SDS011;20549;50.042;8.968;2023-12-14T00:42:59;9.60;;;8.13;;
30998;SDS011;20549;50.042;8.968;2023-12-14T00:45:26;10.17;;;8.60;;
30998;SDS011;20549;50.042;8.968;2023-12-14T00:47:52;9.40;;;8.47;;
30998;SDS011;20549;50.042;8.968;2023-12-14T00:50:19;9.03;;;8.17;;
30998;SDS011;20549;50.042;8.968;2023-12-14T00:52:46;8.53;;;7.50;;
30998;SDS011;20549;50.042;8.968;2023-12-14T00:55:12;9.93;;;7.80;;
30998;SDS011;20549;50.042;8.968;2023-12-14T00:57:39;8.43;;;7.00;;
30998;SDS011;20549;50.042;8.968;2023-12-14T01:00:05;8.40;;;7.50;;
30998;SDS011;20549;50.042;8.968;2023-12-14T01:02:32;8.60;;;7.53;;
30998;SDS011;20549;50.042;8.968;2023-12-14T01:04:59;8.53;;;7.33;;
30998;SDS011;20549;50.042;8.968;2023-12-14T01:07:25;7.57;;;6.80;;
30998;SDS011;20549;50.042;8.968;2023-12-14T01:09:52;9.03;;;7.03;;
30998;SDS011;20549;50.042;8.968;2023-12-14T01:12:18;11.17;;;7.60;;
30998;SDS011;20549;50.042;8.968;2023-12-14T01:14:45;8.17;;;6.93;;
30998;SDS011;20549;50.042;8.968;2023-12-14T01:17:12;11.30;;;7.40;;
30998;SDS011;20549;50.042;8.968;2023-12-14T01:19:41;7.67;;;6.87;;
30998;SDS011;20549;50.042;8.968;2023-12-14T01:22:08;7.87;;;7.17;;
30998;SDS011;20549;50.042;8.968;2023-12-14T01:24:34;7.93;;;7.10;;
30998;SDS011;20549;50.042;8.968;2023-12-14T01:27:01;9.47;;;7.47;;
30998;SDS011;20549;50.042;8.968;2023-12-14T01:29:28;7.63;;;6.83;;
30998;SDS011;20549;50.042;8.968;2023-12-14T01:31:54;8.10;;;7.07;;
30998;SDS011;20549;50.042;8.968;2023-12-14T01:34:21;8.70;;;7.43;;
30998;SDS011;20549;50.042;8.968;2023-12-14T01:36:47;8.30;;;7.47;;
30998;SDS011;20549;50.042;8.968;2023-12-14T01:39:14;8.77;;;7.87;;
30998;SDS011;20549;50.042;8.968;2023-12-14T01:41:40;10.77;;;7.60;;
30998;SDS011;20549;50.042;8.968;2023-12-14T01:44:07;8.13;;;7.33;;
30998;SDS011;20549;50.042;8.968;2023-12-14T01:46:34;7.33;;;6.63;;
30998;SDS011;20549;50.042;8.968;2023-12-14T01:49:00;8.60;;;7.40;;
30998;SDS011;20549;50.042;8.968;2023-12-14T01:51:27;8.17;;;7.37;;
30998;SDS011;20549;50.042;8.968;2023-12-14T01:53:53;8.73;;;7.27;;
30998;SDS011;20549;50.042;8.968;2023-12-14T01:56:20;8.90;;;7.90;;
30998;SDS011;20549;50.042;8.968;2023-12-14T01:58:47;10.00;;;7.57;;
30998;SDS011;20549;50.042;8.968;2023-12-14T02:01:30;10.63;;;7.73;;
30998;SDS011;20549;50.042;8.968;2023-12-14T02:03:46;8.27;;;7.47;;
30998;SDS011;20549;50.042;8.968;2023-12-14T02:06:12;9.73;;;8.07;;
30998;SDS011;20549;50.042;8.968;2023-12-14T02:08:39;9.10;;;8.20;;
30998;SDS011;20549;50.042;8.968;2023-12-14T02:11:06;9.57;;;8.30;;
30998;SDS011;20549;50.042;8.968;2023-12-14T02:13:32;10.57;;;9.00;;
30998;SDS011;20549;50.042;8.968;2023-12-14T02:15:59;10.67;;;8.50;;
30998;SDS011;20549;50.042;8.968;2023-12-14T02:18:25;9.13;;;8.00;;
30998;SDS011;20549;50.042;8.968;2023-12-14T02:20:52;10.47;;;8.27;;
30998;SDS011;20549;50.042;8.968;2023-12-14T02:23:19;10.10;;;8.17;;
30998;SDS011;20549;50.042;8.968;2023-12-14T02:25:45;9.80;;;8.77;;
30998;SDS011;20549;50.042;8.968;2023-12-14T02:28:12;17.93;;;11.23;;
30998;SDS011;20549;50.042;8.968;2023-12-14T02:30:38;15.33;;;10.93;;
30998;SDS011;20549;50.042;8.968;2023-12-14T02:33:05;17.63;;;10.60;;
30998;SDS011;20549;50.042;8.968;2023-12-14T02:35:31;15.37;;;10.33;;
30998;SDS011;20549;50.042;8.968;2023-12-14T02:37:58;14.33;;;10.10;;
30998;SDS011;20549;50.042;8.968;2023-12-14T02:40:25;16.43;;;10.60;;
30998;SDS011;20549;50.042;8.968;2023-12-14T02:42:51;15.87;;;10.53;;
30998;SDS011;20549;50.042;8.968;2023-12-14T02:45:18;16.43;;;10.17;;
30998;SDS011;20549;50.042;8.968;2023-12-14T02:47:44;16.00;;;10.57;;
30998;SDS011;20549;50.042;8.968;2023-12-14T02:50:11;16.83;;;10.47;;
30998;SDS011;20549;50.042;8.968;2023-12-14T02:52:38;16.67;;;11.70;;
30998;SDS011;20549;50.042;8.968;2023-12-14T02:55:04;16.77;;;10.70;;
30998;SDS011;20549;50.042;8.968;2023-12-14T02:57:31;15.67;;;10.30;;
30998;SDS011;20549;50.042;8.968;2023-12-14T02:59:57;16.00;;;10.67;;
30998;SDS011;20549;50.042;8.968;2023-12-14T03:02:24;17.97;;;11.60;;
30998;SDS011;20549;50.042;8.968;2023-12-14T03:04:51;18.20;;;12.03;;
30998;SDS011;20549;50.042;8.968;2023-12-14T03:07:17;18.87;;;11.73;;
30998;SDS011;20549;50.042;8.968;2023-12-14T03:09:44;18.87;;;11.10;;
30998;SDS011;20549;50.042;8.968;2023-12-14T03:12:10;14.90;;;10.70;;
30998;SDS011;20549;50.042;8.968;2023-12-14T03:14:37;16.43;;;11.23;;
30998;SDS011;20549;50.042;8.968;2023-12-14T03:17:03;14.57;;;10.70;;
30998;SDS011;20549;50.042;8.968;2023-12-14T03:19:30;12.80;;;10.13;;
30998;SDS011;20549;50.042;8.968;2023-12-14T03:21:57;16.23;;;10.43;;
30998;SDS011;20549;50.042;8.968;2023-12-14T03:24:23;16.30;;;10.37;;
30998;SDS011;20549;50.042;8.968;2023-12-14T03:26:50;14.07;;;10.70;;
30998;SDS011;20549;50.042;8.968;2023-12-14T03:29:16;13.97;;;10.83;;
30998;SDS011;20549;50.042;8.968;2023-12-14T03:31:43;16.10;;;10.77;;
30998;SDS011;20549;50.042;8.968;2023-12-14T03:34:10;15.23;;;10.87;;
30998;SDS011;20549;50.042;8.968;2023-12-14T03:36:36;16.10;;;11.03;;
30998;SDS011;20549;50.042;8.968;2023-12-14T03:39:03;31.33;;;12.37;;
30998;SDS011;20549;50.042;8.968;2023-12-14T03:41:29;51.73;;;13.17;;
30998;SDS011;20549;50.042;8.968;2023-12-14T03:43:56;15.20;;;10.80;;
30998;SDS011;20549;50.042;8.968;2023-12-14T03:46:23;13.33;;;10.27;;
30998;SDS011;20549;50.042;8.968;2023-12-14T03:48:49;17.40;;;9.97;;
30998;SDS011;20549;50.042;8.968;2023-12-14T03:51:19;16.70;;;10.70;;
30998;SDS011;20549;50.042;8.968;2023-12-14T03:53:45;16.47;;;9.43;;
30998;SDS011;20549;50.042;8.968;2023-12-14T03:56:12;14.90;;;10.27;;
30998;SDS011;20549;50.042;8.968;2023-12-14T03:58:38;14.13;;;9.93;;
30998;SDS011;20549;50.042;8.968;2023-12-14T04:01:05;13.17;;;10.47;;
30998;SDS011;20549;50.042;8.968;2023-12-14T04:03:31;11.90;;;9.83;;
30998;SDS011;20549;50.042;8.968;2023-12-14T04:05:58;12.00;;;9.70;;
30998;SDS011;20549;50.042;8.968;2023-12-14T04:08:24;11.00;;;9.17;;
30998;SDS011;20549;50.042;8.968;2023-12-14T04:10:51;14.20;;;10.87;;
30998;SDS011;20549;50.042;8.968;2023-12-14T04:13:18;15.40;;;11.53;;
30998;SDS011;20549;50.042;8.968;2023-12-14T04:15:44;13.37;;;10.40;;
30998;SDS011;20549;50.042;8.968;2023-12-14T04:18:11;16.57;;;10.97;;
30998;SDS011;20549;50.042;8.968;2023-12-14T04:20:37;20.07;;;12.63;;
30998;SDS011;20549;50.042;8.968;2023-12-14T04:23:04;23.33;;;11.77;;
30998;SDS011;20549;50.042;8.968;2023-12-14T04:25:31;17.27;;;12.20;;
30998;SDS011;20549;50.042;8.968;2023-12-14T04:27:57;20.53;;;12.20;;
30998;SDS011;20549;50.042;8.968;2023-12-14T04:30:24;20.80;;;11.67;;
30998;SDS011;20549;50.042;8.968;2023-12-14T04:32:50;22.37;;;13.03;;
30998;SDS011;20549;50.042;8.968;2023-12-14T04:35:17;20.87;;;12.13;;
30998;SDS011;20549;50.042;8.968;2023-12-14T04:37:44;16.23;;;11.30;;
30998;SDS011;20549;50.042;8.968;2023-12-14T04:40:10;16.83;;;12.07;;
30998;SDS011;20549;50.042;8.968;2023-12-14T04:42:37;19.73;;;12.73;;
30998;SDS011;20549;50.042;8.968;2023-12-14T04:45:03;16.87;;;11.63;;
30998;SDS011;20549;50.042;8.968;2023-12-14T04:47:30;24.70;;;11.50;;
30998;SDS011;20549;50.042;8.968;2023-12-14T04:49:57;17.30;;;12.07;;
30998;SDS011;20549;50.042;8.968;2023-12-14T04:52:23;15.77;;;11.10;;
30998;SDS011;20549;50.042;8.968;2023-12-14T04:54:50;15.90;;;10.93;;
30998;SDS011;20549;50.042;8.968;2023-12-14T04:57:16;21.10;;;11.17;;
30998;SDS011;20549;50.042;8.968;2023-12-14T04:59:43;18.37;;;11.70;;
30998;SDS011;20549;50.042;8.968;2023-12-14T05:02:10;18.93;;;12.30;;
30998;SDS011;20549;50.042;8.968;2023-12-14T05:04:36;20.07;;;12.77;;
30998;SDS011;20549;50.042;8.968;2023-12-14T05:07:03;22.60;;;14.23;;
30998;SDS011;20549;50.042;8.968;2023-12-14T05:09:29;21.20;;;13.63;;
30998;SDS011;20549;50.042;8.968;2023-12-14T05:11:56;17.77;;;12.03;;
30998;SDS011;20549;50.042;8.968;2023-12-14T05:14:23;16.07;;;11.77;;
30998;SDS011;20549;50.042;8.968;2023-12-14T05:16:49;16.60;;;11.43;;
30998;SDS011;20549;50.042;8.968;2023-12-14T05:19:16;16.53;;;11.57;;
30998;SDS011;20549;50.042;8.968;2023-12-14T05:21:42;15.87;;;11.60;;
30998;SDS011;20549;50.042;8.968;2023-12-14T05:24:09;20.50;;;12.83;;
30998;SDS011;20549;50.042;8.968;2023-12-14T05:26:35;17.87;;;12.07;;
30998;SDS011;20549;50.042;8.968;2023-12-14T05:29:02;20.80;;;12.27;;
30998;SDS011;20549;50.042;8.968;2023-12-14T05:31:29;16.67;;;11.90;;
30998;SDS011;20549;50.042;8.968;2023-12-14T05:33:55;16.80;;;12.63;;
30998;SDS011;20549;50.042;8.968;2023-12-14T05:36:22;16.90;;;12.17;;
30998;SDS011;20549;50.042;8.968;2023-12-14T05:38:48;18.13;;;12.03;;
30998;SDS011;20549;50.042;8.968;2023-12-14T05:41:15;17.13;;;11.53;;
30998;SDS011;20549;50.042;8.968;2023-12-14T05:43:42;15.77;;;11.63;;
30998;SDS011;20549;50.042;8.968;2023-12-14T05:46:08;15.37;;;11.60;;
30998;SDS011;20549;50.042;8.968;2023-12-14T05:48:35;16.50;;;12.47;;
30998;SDS011;20549;50.042;8.968;2023-12-14T05:51:01;18.43;;;12.40;;
30998;SDS011;20549;50.042;8.968;2023-12-14T05:53:28;21.27;;;12.17;;
30998;SDS011;20549;50.042;8.968;2023-12-14T05:55:55;20.60;;;12.10;;
30998;SDS011;20549;50.042;8.968;2023-12-14T05:58:21;20.07;;;12.03;;
30998;SDS011;20549;50.042;8.968;2023-12-14T06:00:48;19.80;;;11.73;;
30998;SDS011;20549;50.042;8.968;2023-12-14T06:03:14;25.20;;;12.63;;
30998;SDS011;20549;50.042;8.968;2023-12-14T06:05:41;37.97;;;13.93;;
30998;SDS011;20549;50.042;8.968;2023-12-14T06:08:07;31.40;;;12.90;;
30998;SDS011;20549;50.042;8.968;2023-12-14T06:10:34;29.10;;;12.73;;
30998;SDS011;20549;50.042;8.968;2023-12-14T06:13:01;26.00;;;11.93;;
30998;SDS011;20549;50.042;8.968;2023-12-14T06:15:27;30.00;;;12.40;;
30998;SDS011;20549;50.042;8.968;2023-12-14T06:17:54;29.17;;;12.43;;
30998;SDS011;20549;50.042;8.968;2023-12-14T06:20:20;31.30;;;13.20;;
30998;SDS011;20549;50.042;8.968;2023-12-14T06:22:47;29.23;;;12.80;;
30998;SDS011;20549;50.042;8.968;2023-12-14T06:25:14;25.53;;;12.20;;
30998;SDS011;20549;50.042;8.968;2023-12-14T06:27:41;28.83;;;11.43;;
30998;SDS011;20549;50.042;8.968;2023-12-14T06:30:07;26.73;;;11.83;;
30998;SDS011;20549;50.042;8.968;2023-12-14T06:32:33;22.90;;;11.73;;
30998;SDS011;20549;50.042;8.968;2023-12-14T06:35:00;16.10;;;11.13;;
30998;SDS011;20549;50.042;8.968;2023-12-14T06:37:27;27.80;;;11.77;;
30998;SDS011;20549;50.042;8.968;2023-12-14T06:39:53;17.97;;;10.40;;
30998;SDS011;20549;50.042;8.968;2023-12-14T06:42:20;16.10;;;11.33;;
30998;SDS011;20549;50.042;8.968;2023-12-14T06:44:46;17.03;;;10.60;;
30998;SDS011;20549;50.042;8.968;2023-12-14T06:47:13;18.53;;;10.60;;
30998;SDS011;20549;50.042;8.968;2023-12-14T06:49:40;14.13;;;10.37;;
30998;SDS011;20549;50.042;8.968;2023-12-14T06:52:06;13.00;;;9.43;;
30998;SDS011;20549;50.042;8.968;2023-12-14T06:54:33;12.10;;;10.13;;
30998;SDS011;20549;50.042;8.968;2023-12-14T06:56:59;14.13;;;10.23;;
30998;SDS011;20549;50.042;8.968;2023-12-14T06:59:26;13.27;;;10.70;;
30998;SDS011;20549;50.042;8.968;2023-12-14T07:01:53;12.60;;;9.40;;
30998;SDS011;20549;50.042;8.968;2023-12-14T07:04:19;11.13;;;9.67;;
30998;SDS011;20549;50.042;8.968;2023-12-14T07:06:52;13.93;;;10.20;;
30998;SDS011;20549;50.042;8.968;2023-12-14T07:09:18;14.97;;;10.40;;
30998;SDS011;20549;50.042;8.968;2023-12-14T07:11:45;13.13;;;10.03;;
30998;SDS011;20549;50.042;8.968;2023-12-14T07:14:12;13.93;;;10.87;;
30998;SDS011;20549;50.042;8.968;2023-12-14T07:16:38;13.33;;;10.23;;
30998;SDS011;20549;50.042;8.968;2023-12-14T07:19:05;15.10;;;9.57;;
30998;SDS011;20549;50.042;8.968;2023-12-14T07:21:31;10.27;;;9.13;;
30998;SDS011;20549;50.042;8.968;2023-12-14T07:23:58;14.30;;;10.20;;
30998;SDS011;20549;50.042;8.968;2023-12-14T07:26:24;12.17;;;10.20;;
30998;SDS011;20549;50.042;8.968;2023-12-14T07:28:53;11.27;;;9.63;;
30998;SDS011;20549;50.042;8.968;2023-12-14T07:31:18;16.10;;;10.97;;
30998;SDS011;20549;50.042;8.968;2023-12-14T07:33:45;11.00;;;9.43;;
30998;SDS011;20549;50.042;8.968;2023-12-14T07:36:11;12.47;;;9.53;;
30998;SDS011;20549;50.042;8.968;2023-12-14T07:38:37;11.80;;;9.83;;
30998;SDS011;20549;50.042;8.968;2023-12-14T07:41:04;14.27;;;10.90;;
30998;SDS011;20549;50.042;8.968;2023-12-14T07:43:30;14.23;;;10.87;;
30998;SDS011;20549;50.042;8.968;2023-12-14T07:45:57;15.87;;;11.23;;
30998;SDS011;20549;50.042;8.968;2023-12-14T07:48:24;13.80;;;10.63;;
30998;SDS011;20549;50.042;8.968;2023-12-14T07:50:50;14.97;;;11.43;;
30998;SDS011;20549;50.042;8.968;2023-12-14T07:53:17;11.70;;;10.50;;
30998;SDS011;20549;50.042;8.968;2023-12-14T07:55:43;14.27;;;11.37;;
30998;SDS011;20549;50.042;8.968;2023-12-14T07:58:10;12.50;;;11.13;;
30998;SDS011;20549;50.042;8.968;2023-12-14T08:00:37;13.10;;;10.90;;
30998;SDS011;20549;50.042;8.968;2023-12-14T08:03:03;14.17;;;11.40;;
30998;SDS011;20549;50.042;8.968;2023-12-14T08:05:30;12.97;;;11.20;;
30998;SDS011;20549;50.042;8.968;2023-12-14T08:07:56;13.27;;;11.57;;
30998;SDS011;20549;50.042;8.968;2023-12-14T08:10:23;14.57;;;11.60;;
30998;SDS011;20549;50.042;8.968;2023-12-14T08:12:50;13.20;;;11.37;;
30998;SDS011;20549;50.042;8.968;2023-12-14T08:15:16;15.20;;;11.43;;
30998;SDS011;20549;50.042;8.968;2023-12-14T08:17:43;11.90;;;10.70;;
30998;SDS011;20549;50.042;8.968;2023-12-14T08:20:09;12.30;;;11.00;;
30998;SDS011;20549;50.042;8.968;2023-12-14T08:22:36;13.80;;;11.57;;
30998;SDS011;20549;50.042;8.968;2023-12-14T08:25:02;13.07;;;11.07;;
30998;SDS011;20549;50.042;8.968;2023-12-14T08:27:29;13.03;;;10.60;;
30998;SDS011;20549;50.042;8.968;2023-12-14T08:29:56;11.07;;;9.87;;
30998;SDS011;20549;50.042;8.968;2023-12-14T08:32:22;10.53;;;9.43;;
30998;SDS011;20549;50.042;8.968;2023-12-14T08:34:49;11.00;;;9.90;;
30998;SDS011;20549;50.042;8.968;2023-12-14T08:37:15;10.87;;;9.00;;
30998;SDS011;20549;50.042;8.968;2023-12-14T08:39:42;11.30;;;10.00;;
30998;SDS011;20549;50.042;8.968;2023-12-14T08:42:09;10.67;;;9.57;;
30998;SDS011;20549;50.042;8.968;2023-12-14T08:44:35;10.83;;;9.73;;
30998;SDS011;20549;50.042;8.968;2023-12-14T08:47:02;11.57;;;9.63;;
30998;SDS011;20549;50.042;8.968;2023-12-14T08:49:28;11.60;;;9.93;;
30998;SDS011;20549;50.042;8.968;2023-12-14T08:51:55;10.33;;;9.30;;
30998;SDS011;20549;50.042;8.968;2023-12-14T08:54:21;11.43;;;9.80;;
30998;SDS011;20549;50.042;8.968;2023-12-14T08:56:48;10.77;;;9.47;;
30998;SDS011;20549;50.042;8.968;2023-12-14T08:59:15;12.27;;;9.73;;
30998;SDS011;20549;50.042;8.968;2023-12-14T09:01:41;13.00;;;9.40;;
30998;SDS011;20549;50.042;8.968;2023-12-14T09:04:08;10.57;;;9.20;;
30998;SDS011;20549;50.042;8.968;2023-12-14T09:06:34;11.33;;;8.90;;
30998;SDS011;20549;50.042;8.968;2023-12-14T09:09:01;9.73;;;8.60;;
30998;SDS011;20549;50.042;8.968;2023-12-14T09:11:28;9.67;;;8.67;;
30998;SDS011;20549;50.042;8.968;2023-12-14T09:13:54;10.17;;;8.57;;
30998;SDS011;20549;50.042;8.968;2023-12-14T09:16:21;9.77;;;8.77;;
30998;SDS011;20549;50.042;8.968;2023-12-14T09:18:47;9.97;;;8.97;;
30998;SDS011;20549;50.042;8.968;2023-12-14T09:21:14;9.37;;;7.87;;
30998;SDS011;20549;50.042;8.968;2023-12-14T09:23:41;10.80;;;9.53;;
30998;SDS011;20549;50.042;8.968;2023-12-14T09:26:07;10.13;;;8.77;;
30998;SDS011;20549;50.042;8.968;2023-12-14T09:28:34;11.50;;;9.60;;
30998;SDS011;20549;50.042;8.968;2023-12-14T09:31:00;10.13;;;8.87;;
30998;SDS011;20549;50.042;8.968;2023-12-14T09:33:27;10.80;;;9.23;;
30998;SDS011;20549;50.042;8.968;2023-12-14T09:35:53;10.03;;;8.97;;
30998;SDS011;20549;50.042;8.968;2023-12-14T09:38:20;9.80;;;8.57;;
30998;SDS011;20549;50.042;8.968;2023-12-14T09:40:47;10.27;;;9.17;;
30998;SDS011;20549;50.042;8.968;2023-12-14T09:43:13;8.93;;;8.03;;
30998;SDS011;20549;50.042;8.968;2023-12-14T09:45:40;11.43;;;9.13;;
30998;SDS011;20549;50.042;8.968;2023-12-14T09:48:06;11.67;;;8.93;;
30998;SDS011;20549;50.042;8.968;2023-12-14T09:50:33;10.63;;;9.03;;
30998;SDS011;20549;50.042;8.968;2023-12-14T09:53:00;10.83;;;8.60;;
30998;SDS011;20549;50.042;8.968;2023-12-14T09:55:26;10.33;;;8.63;;
30998;SDS011;20549;50.042;8.968;2023-12-14T09:57:53;9.07;;;7.90;;
30998;SDS011;20549;50.042;8.968;2023-12-14T10:00:32;10.20;;;8.70;;
30998;SDS011;20549;50.042;8.968;2023-12-14T10:03:13;9.93;;;8.47;;
30998;SDS011;20549;50.042;8.968;2023-12-14T10:05:25;9.43;;;8.48;;
30998;SDS011;20549;50.042;8.968;2023-12-14T10:07:51;9.40;;;8.50;;
30998;SDS011;20549;50.042;8.968;2023-12-14T10:10:18;9.57;;;8.20;;
30998;SDS011;20549;50.042;8.968;2023-12-14T10:12:51;9.47;;;8.13;;
30998;SDS011;20549;50.042;8.968;2023-12-14T10:15:20;9.33;;;8.30;;
30998;SDS011;20549;50.042;8.968;2023-12-14T10:17:46;9.17;;;8.07;;
30998;SDS011;20549;50.042;8.968;2023-12-14T10:20:13;10.80;;;8.20;;
30998;SDS011;20549;50.042;8.968;2023-12-14T10:22:39;9.17;;;7.77;;
30998;SDS011;20549;50.042;8.968;2023-12-14T10:25:06;9.37;;;8.40;;
30998;SDS011;20549;50.042;8.968;2023-12-14T10:27:33;10.13;;;7.70;;
30998;SDS011;20549;50.042;8.968;2023-12-14T10:29:59;10.13;;;8.65;;
30998;SDS011;20549;50.042;8.968;2023-12-14T10:32:26;9.85;;;8.85;;
30998;SDS011;20549;50.042;8.968;2023-12-14T10:34:52;11.40;;;9.00;;
30998;SDS011;20549;50.042;8.968;2023-12-14T10:37:19;10.03;;;9.03;;
30998;SDS011;20549;50.042;8.968;2023-12-14T10:39:46;12.00;;;8.90;;
30998;SDS011;20549;50.042;8.968;2023-12-14T10:42:12;11.57;;;9.63;;
30998;SDS011;20549;50.042;8.968;2023-12-14T10:44:39;10.83;;;9.37;;
30998;SDS011;20549;50.042;8.968;2023-12-14T10:47:05;11.53;;;8.98;;
30998;SDS011;20549;50.042;8.968;2023-12-14T10:49:32;10.90;;;9.50;;
30998;SDS011;20549;50.042;8.968;2023-12-14T10:51:58;13.60;;;10.00;;
30998;SDS011;20549;50.042;8.968;2023-12-14T10:54:25;12.63;;;10.57;;
30998;SDS011;20549;50.042;8.968;2023-12-14T10:56:55;17.27;;;11.27;;
30998;SDS011;20549;50.042;8.968;2023-12-14T10:59:21;14.23;;;11.43;;
30998;SDS011;20549;50.042;8.968;2023-12-14T11:01:51;13.17;;;11.20;;
30998;SDS011;20549;50.042;8.968;2023-12-14T11:04:17;14.10;;;10.93;;
30998;SDS011;20549;50.042;8.968;2023-12-14T11:06:44;15.47;;;11.20;;
30998;SDS011;20549;50.042;8.968;2023-12-14T11:09:10;15.60;;;9.93;;
30998;SDS011;20549;50.042;8.968;2023-12-14T11:11:40;11.57;;;10.37;;
30998;SDS011;20549;50.042;8.968;2023-12-14T11:14:07;11.63;;;9.85;;
30998;SDS011;20549;50.042;8.968;2023-12-14T11:16:34;9.93;;;8.93;;
30998;SDS011;20549;50.042;8.968;2023-12-14T11:21:52;10.73;;;8.60;;
30998;SDS011;20549;50.042;8.968;2023-12-14T11:24:15;10.90;;;8.63;;
30998;SDS011;20549;50.042;8.968;2023-12-14T11:26:41;9.50;;;8.40;;
30998;SDS011;20549;50.042;8.968;2023-12-14T11:29:08;10.27;;;8.20;;
30998;SDS011;20549;50.042;8.968;2023-12-14T11:31:35;10.13;;;8.43;;
30998;SDS011;20549;50.042;8.968;2023-12-14T11:34:01;9.23;;;8.20;;
30998;SDS011;20549;50.042;8.968;2023-12-14T11:36:28;10.30;;;9.10;;
30998;SDS011;20549;50.042;8.968;2023-12-14T11:38:54;14.13;;;9.87;;
30998;SDS011;20549;50.042;8.968;2023-12-14T11:41:21;11.37;;;9.40;;
30998;SDS011;20549;50.042;8.968;2023-12-14T11:43:48;11.07;;;9.43;;
30998;SDS011;20549;50.042;8.968;2023-12-14T11:46:14;10.37;;;9.27;;
30998;SDS011;20549;50.042;8.968;2023-12-14T11:48:43;9.70;;;8.70;;
30998;SDS011;20549;50.042;8.968;2023-12-14T11:51:07;10.07;;;9.07;;
30998;SDS011;20549;50.042;8.968;2023-12-14T11:53:35;11.53;;;9.67;;
30998;SDS011;20549;50.042;8.968;2023-12-14T11:56:01;11.18;;;9.55;;
30998;SDS011;20549;50.042;8.968;2023-12-14T11:58:27;11.23;;;9.00;;
30998;SDS011;20549;50.042;8.968;2023-12-14T12:00:54;10.53;;;9.45;;
30998;SDS011;20549;50.042;8.968;2023-12-14T12:03:20;9.93;;;8.87;;
30998;SDS011;20549;50.042;8.968;2023-12-14T12:05:48;11.27;;;9.20;;
30998;SDS011;20549;50.042;8.968;2023-12-14T12:08:14;10.87;;;9.23;;
30998;SDS011;20549;50.042;8.968;2023-12-14T12:10:41;10.27;;;8.57;;
30998;SDS011;20549;50.042;8.968;2023-12-14T12:13:07;11.15;;;8.30;;
30998;SDS011;20549;50.042;8.968;2023-12-14T12:15:34;9.47;;;8.47;;
30998;SDS011;20549;50.042;8.968;2023-12-14T12:18:00;8.00;;;7.20;;
30998;SDS011;20549;50.042;8.968;2023-12-14T12:20:26;8.73;;;7.83;;
30998;SDS011;20549;50.042;8.968;2023-12-14T12:22:53;10.00;;;7.93;;
30998;SDS011;20549;50.042;8.968;2023-12-14T12:25:20;9.43;;;7.33;;
30998;SDS011;20549;50.042;8.968;2023-12-14T12:27:46;7.90;;;6.93;;
30998;SDS011;20549;50.042;8.968;2023-12-14T12:30:13;7.20;;;6.50;;
30998;SDS011;20549;50.042;8.968;2023-12-14T12:32:39;7.73;;;7.00;;
30998;SDS011;20549;50.042;8.968;2023-12-14T12:35:06;7.53;;;6.37;;
30998;SDS011;20549;50.042;8.968;2023-12-14T12:37:33;8.97;;;6.77;;
30998;SDS011;20549;50.042;8.968;2023-12-14T12:39:59;7.47;;;6.73;;
30998;SDS011;20549;50.042;8.968;2023-12-14T12:42:26;7.40;;;6.65;;
30998;SDS011;20549;50.042;8.968;2023-12-14T12:44:52;8.30;;;6.22;;
30998;SDS011;20549;50.042;8.968;2023-12-14T12:47:19;7.63;;;5.23;;
30998;SDS011;20549;50.042;8.968;2023-12-14T12:49:46;7.13;;;5.63;;
30998;SDS011;20549;50.042;8.968;2023-12-14T12:52:12;6.65;;;5.40;;
30998;SDS011;20549;50.042;8.968;2023-12-14T12:54:39;5.60;;;5.10;;
30998;SDS011;20549;50.042;8.968;2023-12-14T12:57:05;5.07;;;4.57;;
30998;SDS011;20549;50.042;8.968;2023-12-14T12:59:32;5.33;;;4.17;;
30998;SDS011;20549;50.042;8.968;2023-12-14T13:01:59;4.83;;;4.00;;
30998;SDS011;20549;50.042;8.968;2023-12-14T13:04:25;4.72;;;4.15;;
30998;SDS011;20549;50.042;8.968;2023-12-14T13:06:52;4.30;;;3.90;;
30998;SDS011;20549;50.042;8.968;2023-12-14T13:09:18;4.07;;;3.67;;
30998;SDS011;20549;50.042;8.968;2023-12-14T13:11:45;6.05;;;3.70;;
30998;SDS011;20549;50.042;8.968;2023-12-14T13:14:11;2.87;;;2.67;;
30998;SDS011;20549;50.042;8.968;2023-12-14T13:16:38;3.07;;;2.77;;
30998;SDS011;20549;50.042;8.968;2023-12-14T13:19:05;3.27;;;2.97;;
30998;SDS011;20549;50.042;8.968;2023-12-14T13:21:31;3.03;;;2.80;;
30998;SDS011;20549;50.042;8.968;2023-12-14T13:23:58;3.10;;;2.80;;
30998;SDS011;20549;50.042;8.968;2023-12-14T13:26:24;3.00;;;2.70;;
30998;SDS011;20549;50.042;8.968;2023-12-14T13:28:51;2.98;;;2.70;;
30998;SDS011;20549;50.042;8.968;2023-12-14T13:31:18;3.10;;;2.80;;
30998;SDS011;20549;50.042;8.968;2023-12-14T13:33:48;2.63;;;2.43;;
30998;SDS011;20549;50.042;8.968;2023-12-14T13:36:14;2.70;;;2.50;;
30998;SDS011;20549;50.042;8.968;2023-12-14T13:38:40;2.70;;;2.47;;
30998;SDS011;20549;50.042;8.968;2023-12-14T13:41:07;2.43;;;2.23;;
30998;SDS011;20549;50.042;8.968;2023-12-14T13:43:33;2.60;;;2.40;;
30998;SDS011;20549;50.042;8.968;2023-12-14T13:46:00;2.67;;;2.47;;
30998;SDS011;20549;50.042;8.968;2023-12-14T13:48:27;2.80;;;2.60;;
30998;SDS011;20549;50.042;8.968;2023-12-14T13:50:53;2.60;;;2.40;;
30998;SDS011;20549;50.042;8.968;2023-12-14T13:53:20;1.90;;;1.80;;
30998;SDS011;20549;50.042;8.968;2023-12-14T13:55:46;2.60;;;2.40;;
30998;SDS011;20549;50.042;8.968;2023-12-14T13:58:13;2.10;;;1.90;;
30998;SDS011;20549;50.042;8.968;2023-12-14T14:00:39;2.22;;;2.05;;
30998;SDS011;20549;50.042;8.968;2023-12-14T14:03:06;2.35;;;2.08;;
30998;SDS011;20549;50.042;8.968;2023-12-14T14:05:33;2.37;;;1.97;;
30998;SDS011;20549;50.042;8.968;2023-12-14T14:07:59;2.43;;;2.23;;
30998;SDS011;20549;50.042;8.968;2023-12-14T14:10:26;2.80;;;2.00;;
30998;SDS011;20549;50.042;8.968;2023-12-14T14:12:52;2.53;;;2.33;;
30998;SDS011;20549;50.042;8.968;2023-12-14T14:15:19;2.30;;;2.10;;
30998;SDS011;20549;50.042;8.968;2023-12-14T14:17:46;2.10;;;1.90;;
30998;SDS011;20549;50.042;8.968;2023-12-14T14:20:12;2.77;;;2.10;;
30998;SDS011;20549;50.042;8.968;2023-12-14T14:22:39;1.87;;;1.77;;
30998;SDS011;20549;50.042;8.968;2023-12-14T14:25:06;2.30;;;2.10;;
30998;SDS011;20549;50.042;8.968;2023-12-14T14:27:32;3.50;;;2.43;;
30998;SDS011;20549;50.042;8.968;2023-12-14T14:29:59;2.30;;;2.10;;
30998;SDS011;20549;50.042;8.968;2023-12-14T14:32:25;2.37;;;2.10;;